Time,TemperatureF,DewpointF,PressureIn,WindDirection,WindDirectionDegrees,WindSpeedMPH,WindSpeedGustMPH,Humidity,HourlyPrecipIn,Conditions,Clouds,dailyrainin,SolarRadiationWatts/m^2,SoftwareType,DateUTC
2013-05-20 10:12:00,52.0,43.0,-100.00,WSW,250,11.0,14.0,72,-99.99,,,-99.99,668.900024,,2013-05-20 16:12:00,
2013-05-20 10:22:00,53.0,43.0,-100.00,SW,236,10.0,15.0,69,-99.99,,,-99.99,710.799988,,2013-05-20 16:22:00,
2013-05-20 10:33:00,53.0,44.0,-100.00,SW,235,9.0,12.0,69,-99.99,,,-99.99,775.400024,,2013-05-20 16:33:00,
2013-05-20 10:42:00,54.0,43.0,-100.00,SW,236,10.0,14.0,65,-99.99,,,-99.99,769.599976,,2013-05-20 16:42:00,
2013-05-20 10:52:00,55.0,44.0,-100.00,SW,224,9.0,13.0,65,-99.99,,,-99.99,786.200012,,2013-05-20 16:52:00,
2013-05-20 11:02:00,56.0,44.0,-100.00,SW,228,10.0,15.0,64,-99.99,,,-99.99,868.000000,,2013-05-20 17:02:00,
2013-05-20 11:11:00,56.0,45.0,-100.00,SSW,205,12.0,16.0,65,-99.99,,,-99.99,821.000000,,2013-05-20 17:11:00,
2013-05-20 11:22:00,56.0,45.0,-100.00,SSW,205,12.0,15.0,64,-99.99,,,-99.99,853.000000,,2013-05-20 17:22:00,
2013-05-20 11:32:00,58.0,44.0,-100.00,SW,225,11.0,13.0,61,-99.99,,,-99.99,811.000000,,2013-05-20 17:32:00,
2013-05-20 11:44:00,58.0,44.0,-100.00,WSW,252,10.0,14.0,60,-99.99,,,-99.99,1013.000000,,2013-05-20 17:44:00,
2013-05-20 11:53:00,59.0,45.0,-100.00,WSW,257,8.0,11.0,59,-99.99,,,-99.99,630.599976,,2013-05-20 17:53:00,
2013-05-20 12:02:00,59.0,44.0,-100.00,WNW,287,9.0,13.0,57,-99.99,,,-99.99,819.000000,,2013-05-20 18:02:00,
2013-05-20 12:12:00,59.0,43.0,-100.00,West,280,7.0,11.0,54,-99.99,,,-99.99,969.000000,,2013-05-20 18:12:00,
2013-05-20 12:23:00,59.0,42.0,-100.00,West,278,5.0,8.0,53,-99.99,,,-99.99,995.000000,,2013-05-20 18:23:00,
2013-05-20 12:32:00,59.0,43.0,-100.00,West,267,6.0,8.0,53,-99.99,,,-99.99,1034.000000,,2013-05-20 18:32:00,
2013-05-20 12:41:00,59.0,41.0,-100.00,WNW,284,5.0,10.0,50,-99.99,,,-99.99,647.099976,,2013-05-20 18:41:00,
2013-05-20 12:55:00,60.0,41.0,-100.00,WSW,243,6.0,9.0,50,-99.99,,,-99.99,966.000000,,2013-05-20 18:55:00,
2013-05-20 13:04:00,61.0,44.0,-100.00,WSW,254,7.0,11.0,52,-99.99,,,-99.99,974.000000,,2013-05-20 19:04:00,
2013-05-20 13:11:00,61.0,42.0,-100.00,WNW,295,5.0,8.0,49,-99.99,,,-99.99,981.000000,,2013-05-20 19:11:00,
2013-05-20 13:21:00,61.0,41.0,-100.00,West,265,5.0,9.0,49,-99.99,,,-99.99,826.000000,,2013-05-20 19:21:00,
2013-05-20 13:32:00,61.0,41.0,-100.00,WNW,287,6.0,7.0,48,-99.99,,,-99.99,735.299988,,2013-05-20 19:32:00,
2013-05-20 13:41:00,62.0,42.0,-100.00,WSW,237,6.0,13.0,48,-99.99,,,-99.99,901.000000,,2013-05-20 19:41:00,
2013-05-20 13:52:00,62.0,42.0,-100.00,SW,224,6.0,11.0,47,-99.99,,,-99.99,640.000000,,2013-05-20 19:52:00,
2013-05-20 14:01:00,62.0,40.0,-100.00,West,273,5.0,7.0,46,-99.99,,,-99.99,769.900024,,2013-05-20 20:01:00,
2013-05-20 14:11:00,62.0,42.0,-100.00,West,260,4.0,12.0,47,-99.99,,,-99.99,349.299988,,2013-05-20 20:11:00,
2013-05-20 14:21:00,63.0,42.0,-100.00,WSW,249,7.0,12.0,45,-99.99,,,-99.99,738.599976,,2013-05-20 20:21:00,
2013-05-20 14:32:00,63.0,41.0,-100.00,South,191,6.0,8.0,44,-99.99,,,-99.99,1105.000000,,2013-05-20 20:32:00,
2013-05-20 14:42:00,63.0,42.0,-100.00,WNW,288,6.0,10.0,44,-99.99,,,-99.99,1127.000000,,2013-05-20 20:42:00,
2013-05-20 14:51:00,64.0,42.0,-100.00,South,179,4.0,7.0,44,-99.99,,,-99.99,796.400024,,2013-05-20 20:51:00,
2013-05-20 15:01:00,64.0,41.0,-100.00,NE,43,7.0,13.0,43,-99.99,,,-99.99,546.700012,,2013-05-20 21:01:00,
2013-05-20 15:11:00,63.0,41.0,-100.00,SE,132,5.0,9.0,43,-99.99,,,-99.99,391.899994,,2013-05-20 21:11:00,
2013-05-20 15:21:00,64.0,41.0,-100.00,NE,39,9.0,12.0,43,-99.99,,,-99.99,399.899994,,2013-05-20 21:21:00,
2013-05-20 15:32:00,64.0,41.0,-100.00,ENE,66,5.0,7.0,43,-99.99,,,-99.99,962.000000,,2013-05-20 21:32:00,
2013-05-20 15:42:00,64.0,39.0,-100.00,East,85,3.0,6.0,39,-99.99,,,-99.99,956.000000,,2013-05-20 21:42:00,
2013-05-20 15:53:00,65.0,42.0,-100.00,SSE,147,5.0,13.0,42,-99.99,,,-99.99,898.000000,,2013-05-20 21:53:00,
2013-05-20 16:02:00,65.0,42.0,-100.00,East,89,5.0,8.0,43,-99.99,,,-99.99,860.000000,,2013-05-20 22:02:00,
2013-05-20 16:12:00,65.0,42.0,-100.00,East,94,6.0,8.0,42,-99.99,,,-99.99,570.500000,,2013-05-20 22:12:00,
2013-05-20 16:22:00,64.0,41.0,-100.00,SE,135,6.0,10.0,43,-99.99,,,-99.99,390.899994,,2013-05-20 22:22:00,
2013-05-20 16:33:00,64.0,41.0,-100.00,South,182,5.0,9.0,42,-99.99,,,-99.99,593.700012,,2013-05-20 22:33:00,
2013-05-20 16:41:00,65.0,41.0,-100.00,South,185,5.0,9.0,41,-99.99,,,-99.99,840.000000,,2013-05-20 22:41:00,
2013-05-20 16:52:00,65.0,40.0,-100.00,NNE,32,5.0,7.0,40,-99.99,,,-99.99,876.000000,,2013-05-20 22:52:00,
2013-05-20 17:02:00,65.0,41.0,-100.00,NE,48,5.0,8.0,40,-99.99,,,-99.99,236.500000,,2013-05-20 23:02:00,
2013-05-20 17:12:00,65.0,40.0,-100.00,NW,313,3.0,5.0,40,-99.99,,,-99.99,256.399994,,2013-05-20 23:12:00,
2013-05-20 17:21:00,64.0,41.0,-100.00,West,277,4.0,6.0,42,-99.99,,,-99.99,289.100006,,2013-05-20 23:21:00,
2013-05-20 17:32:00,65.0,41.0,-100.00,NE,36,4.0,6.0,42,-99.99,,,-99.99,222.100006,,2013-05-20 23:32:00,
2013-05-20 17:41:00,65.0,43.0,-100.00,East,91,5.0,9.0,45,-99.99,,,-99.99,164.300003,,2013-05-20 23:41:00,
2013-05-20 17:52:00,65.0,43.0,-100.00,SE,125,7.0,9.0,44,-99.99,,,-99.99,158.699997,,2013-05-20 23:52:00,
2013-05-20 18:01:00,65.0,41.0,-100.00,SE,143,6.0,8.0,42,-99.99,,,-99.99,187.800003,,2013-05-21 00:01:00,
2013-05-20 18:11:00,65.0,41.0,-100.00,SE,138,6.0,8.0,42,-99.99,,,-99.99,218.699997,,2013-05-21 00:11:00,
2013-05-20 18:21:00,65.0,41.0,-100.00,SSE,153,7.0,8.0,42,-99.99,,,-99.99,237.800003,,2013-05-21 00:21:00,
2013-05-20 18:31:00,65.0,42.0,-100.00,SSE,149,7.0,8.0,43,-99.99,,,-99.99,290.600006,,2013-05-21 00:31:00,
2013-05-20 18:41:00,65.0,41.0,-100.00,SSE,158,8.0,9.0,41,-99.99,,,-99.99,618.299988,,2013-05-21 00:41:00,
2013-05-20 18:52:00,66.0,41.0,-100.00,SE,135,7.0,9.0,40,-99.99,,,-99.99,510.000000,,2013-05-21 00:52:00,
2013-05-20 19:01:00,66.0,41.0,-100.00,SE,142,6.0,7.0,40,-99.99,,,-99.99,403.399994,,2013-05-21 01:01:00,
2013-05-20 19:11:00,66.0,41.0,-100.00,SE,131,6.0,8.0,40,-99.99,,,-99.99,328.000000,,2013-05-21 01:11:00,
2013-05-20 19:21:00,66.0,42.0,-100.00,SE,135,6.0,9.0,41,-99.99,,,-99.99,277.100006,,2013-05-21 01:21:00,
2013-05-20 19:32:00,66.0,42.0,-100.00,SSE,153,7.0,9.0,41,-99.99,,,-99.99,249.000000,,2013-05-21 01:32:00,
2013-05-20 19:42:00,65.0,41.0,-100.00,SSE,158,6.0,8.0,41,-99.99,,,-99.99,139.000000,,2013-05-21 01:42:00,
2013-05-20 19:52:00,65.0,43.0,-100.00,SSE,151,6.0,7.0,44,-99.99,,,-99.99,100.199997,,2013-05-21 01:52:00,
2013-05-20 20:01:00,65.0,43.0,-100.00,SE,128,6.0,7.0,45,-99.99,,,-99.99,156.100006,,2013-05-21 02:01:00,
2013-05-20 20:11:00,64.0,44.0,-100.00,SE,137,6.0,8.0,46,-99.99,,,-99.99,66.699997,,2013-05-21 02:11:00,
2013-05-20 20:21:00,63.0,45.0,-100.00,SE,126,6.0,7.0,52,-99.99,,,-99.99,25.900000,,2013-05-21 02:21:00,
2013-05-20 20:32:00,62.0,46.0,-100.00,SE,133,5.0,6.0,55,-99.99,,,-99.99,18.600000,,2013-05-21 02:32:00,
2013-05-20 20:41:00,62.0,48.0,-100.00,SE,139,5.0,6.0,59,-99.99,,,-99.99,36.500000,,2013-05-21 02:41:00,
2013-05-20 20:52:00,61.0,48.0,-100.00,SE,137,6.0,6.0,62,-99.99,,,-99.99,22.600000,,2013-05-21 02:52:00,
2013-05-20 21:01:00,60.0,48.0,-100.00,SE,139,6.0,6.0,62,-99.99,,,-99.99,11.000000,,2013-05-21 03:01:00,
2013-05-20 21:21:00,58.0,47.0,-100.00,SSE,149,6.0,6.0,65,-99.99,,,-99.99,1.300000,,2013-05-21 03:21:00,
2013-05-20 21:33:00,57.0,47.0,-100.00,SE,140,5.0,6.0,68,-99.99,,,-99.99,0.200000,,2013-05-21 03:33:00,
2013-05-20 21:42:00,57.0,47.0,-100.00,SSE,151,5.0,5.0,67,-99.99,,,-99.99,-0.100000,,2013-05-21 03:42:00,
2013-05-20 21:53:00,57.0,47.0,-100.00,SSE,153,4.0,5.0,67,-99.99,,,-99.99,-0.100000,,2013-05-21 03:53:00,
2013-05-20 22:03:00,58.0,47.0,-100.00,South,176,2.0,3.0,68,-99.99,,,-99.99,-0.100000,,2013-05-21 04:03:00,
2013-05-20 22:12:00,56.0,48.0,-100.00,South,172,3.0,4.0,72,-99.99,,,-99.99,-0.100000,,2013-05-21 04:12:00,
2013-05-20 22:22:00,54.0,48.0,-100.00,WSW,243,3.0,5.0,77,-99.99,,,-99.99,-0.100000,,2013-05-21 04:22:00,
2013-05-20 22:33:00,55.0,46.0,-100.00,WSW,256,4.0,4.0,72,-99.99,,,-99.99,-0.100000,,2013-05-21 04:33:00,
2013-05-20 22:42:00,54.0,46.0,-100.00,West,260,5.0,6.0,75,-99.99,,,-99.99,-0.100000,,2013-05-21 04:42:00,
2013-05-20 22:52:00,54.0,45.0,-100.00,WSW,255,4.0,5.0,72,-99.99,,,-99.99,-0.100000,,2013-05-21 04:52:00,
2013-05-20 23:02:00,54.0,45.0,-100.00,WSW,253,5.0,5.0,71,-99.99,,,-99.99,-0.100000,,2013-05-21 05:02:00,
2013-05-20 23:11:00,53.0,46.0,-100.00,West,271,5.0,5.0,74,-99.99,,,-99.99,-0.100000,,2013-05-21 05:11:00,
2013-05-20 23:21:00,52.0,46.0,-100.00,SW,233,2.0,4.0,78,-99.99,,,-99.99,-0.100000,,2013-05-21 05:21:00,
2013-05-20 23:31:00,51.0,46.0,-100.00,South,185,4.0,6.0,82,-99.99,,,-99.99,-0.100000,,2013-05-21 05:31:00,
2013-05-20 23:42:00,52.0,46.0,-100.00,SSW,211,5.0,6.0,79,-99.99,,,-99.99,-0.100000,,2013-05-21 05:42:00,
2013-05-20 23:51:00,53.0,45.0,-100.00,SSW,210,4.0,5.0,75,-99.99,,,-99.99,-0.100000,,2013-05-21 05:51:00,